Time;durP1;ratioP1;P1;durP2;ratioP2;P2;SDS_P1;SDS_P2;PMS_P1;PMS_P2;Temp;Humidity;BMP_temperature;BMP_pressure;BME280_temperature;BME280_humidity;BME280_pressure;Samples;Min_cycle;Max_cycle;Signal;HPM_P1;HPM_P2
2023/07/18 00:00:17;;;;;;;11.60;3.80;;;16.40;99.90;;;;;;5006864;28;20151;-86
2023/07/18 00:02:52;;;;;;;15.35;3.92;;;16.40;99.90;;;;;;5023827;28;20086;-87
2023/07/18 00:05:21;;;;;;;13.20;4.30;;;16.40;99.90;;;;;;5007595;28;20447;-87
2023/07/18 00:07:47;;;;;;;12.68;3.55;;;16.30;99.90;;;;;;5023461;28;20025;-87
2023/07/18 00:10:19;;;;;;;11.68;4.18;;;16.30;99.90;;;;;;5007690;28;20041;-87
2023/07/18 00:12:49;;;;;;;10.70;4.20;;;16.30;99.90;;;;;;5023420;28;20040;-86
2023/07/18 00:15:15;;;;;;;12.60;4.32;;;16.30;99.90;;;;;;5006114;28;20155;-87
2023/07/18 00:17:41;;;;;;;11.63;3.97;;;16.30;99.90;;;;;;5039507;28;20040;-86
2023/07/18 00:20:13;;;;;;;16.95;5.00;;;16.20;99.90;;;;;;5006671;28;20116;-86
2023/07/18 00:22:40;;;;;;;15.32;4.05;;;16.20;99.90;;;;;;5039396;28;20428;-86
2023/07/18 00:25:13;;;;;;;14.30;4.85;;;16.20;99.90;;;;;;5006453;28;20114;-87
2023/07/18 00:27:53;;;;;;;13.25;3.80;;;16.20;99.90;;;;;;5006813;28;20033;-86
2023/07/18 00:30:24;;;;;;;16.98;4.63;;;16.20;99.90;;;;;;5006548;28;20025;-87
2023/07/18 00:32:51;;;;;;;15.50;3.80;;;16.20;99.90;;;;;;5007177;28;20434;-87
2023/07/18 00:35:17;;;;;;;13.85;4.22;;;16.20;99.90;;;;;;5006174;28;20052;-87
2023/07/18 00:37:44;;;;;;;15.13;4.28;;;16.20;99.90;;;;;;5006705;28;20032;-86
2023/07/18 00:40:14;;;;;;;14.38;4.07;;;16.20;99.90;;;;;;5007195;28;20106;-87
2023/07/18 00:42:47;;;;;;;13.02;3.67;;;16.20;99.90;;;;;;5006477;28;20435;-87
2023/07/18 00:45:14;;;;;;;15.20;4.47;;;16.20;99.90;;;;;;5010598;28;20123;-87
2023/07/18 00:47:45;;;;;;;13.10;3.85;;;16.10;99.90;;;;;;5006522;28;20025;-86
2023/07/18 00:50:17;;;;;;;10.15;3.85;;;16.10;99.90;;;;;;5023202;28;20056;-86
2023/07/18 00:52:50;;;;;;;16.65;4.45;;;16.10;99.90;;;;;;5022457;28;20063;-87
2023/07/18 00:55:17;;;;;;;11.07;3.75;;;16.10;99.90;;;;;;5022379;28;20033;-87
2023/07/18 00:57:45;;;;;;;12.35;3.92;;;16.10;99.90;;;;;;5022292;28;20021;-86
2023/07/18 01:00:17;;;;;;;13.80;4.47;;;16.10;99.90;;;;;;5008477;28;20033;-86
2023/07/18 01:02:46;;;;;;;13.32;3.40;;;16.00;99.90;;;;;;5042568;28;20031;-86
2023/07/18 01:05:16;;;;;;;13.15;4.45;;;16.00;99.90;;;;;;5058173;28;20537;-86
2023/07/18 01:07:45;;;;;;;10.15;3.17;;;16.00;99.90;;;;;;5042259;28;20028;-86
2023/07/18 01:10:27;;;;;;;13.82;4.15;;;16.00;99.90;;;;;;5058309;28;20025;-87
2023/07/18 01:12:58;;;;;;;12.93;3.95;;;16.00;99.90;;;;;;5042608;28;20324;-86
2023/07/18 01:15:26;;;;;;;13.15;3.67;;;16.00;99.90;;;;;;5057697;28;20049;-86
2023/07/18 01:17:55;;;;;;;13.02;3.95;;;16.00;99.90;;;;;;5043070;28;20078;-86
2023/07/18 01:20:33;;;;;;;13.38;3.63;;;16.00;99.90;;;;;;5042766;28;20036;-86
2023/07/18 01:23:03;;;;;;;10.57;4.20;;;16.00;99.90;;;;;;5025467;28;20168;-86
2023/07/18 01:25:33;;;;;;;12.70;3.95;;;16.00;99.90;;;;;;5025264;28;20039;-87
2023/07/18 01:28:00;;;;;;;14.85;3.90;;;16.00;99.90;;;;;;5041893;28;20105;-86
2023/07/18 01:30:28;;;;;;;13.07;4.00;;;15.90;99.90;;;;;;5041220;28;20103;-87
2023/07/18 01:32:58;;;;;;;13.00;3.80;;;15.90;99.90;;;;;;5025976;28;20044;-87
2023/07/18 01:35:26;;;;;;;15.65;3.92;;;15.90;99.90;;;;;;5024742;28;20093;-85
2023/07/18 01:37:56;;;;;;;13.68;3.95;;;15.90;99.90;;;;;;5042343;28;20047;-86
2023/07/18 01:40:26;;;;;;;13.70;3.70;;;15.90;99.90;;;;;;5024369;28;20441;-86
2023/07/18 01:42:57;;;;;;;11.75;4.00;;;15.90;99.90;;;;;;5041426;28;20044;-86
2023/07/18 01:45:30;;;;;;;11.98;3.78;;;15.90;99.90;;;;;;5041505;28;20345;-87
2023/07/18 01:47:59;;;;;;;14.70;3.70;;;15.90;99.90;;;;;;5038286;28;20032;-86
2023/07/18 01:50:25;;;;;;;11.93;3.80;;;15.90;99.90;;;;;;5004920;28;20041;-86
2023/07/18 01:52:51;;;;;;;11.77;3.33;;;15.80;99.90;;;;;;5005173;28;20033;-86
2023/07/18 01:55:23;;;;;;;12.90;3.85;;;15.80;99.90;;;;;;4990022;28;20036;-87
2023/07/18 01:57:49;;;;;;;11.95;4.05;;;15.80;99.90;;;;;;4989867;28;20444;-86
2023/07/18 02:00:20;;;;;;;14.52;3.92;;;15.80;99.90;;;;;;5004808;28;20079;-87
2023/07/18 02:02:52;;;;;;;12.57;3.80;;;15.80;99.90;;;;;;5021636;28;20208;-86
2023/07/18 02:05:27;;;;;;;12.95;4.35;;;15.80;99.90;;;;;;5004707;28;20124;-87
2023/07/18 02:07:56;;;;;;;13.80;4.10;;;15.80;99.90;;;;;;5021625;28;20112;-86
2023/07/18 02:10:25;;;;;;;15.27;4.28;;;15.80;99.90;;;;;;5004829;28;20151;-87
2023/07/18 02:13:02;;;;;;;13.30;4.07;;;15.80;99.90;;;;;;5021321;28;20115;-86
2023/07/18 02:15:29;;;;;;;12.35;3.85;;;15.80;99.90;;;;;;5020805;28;20490;-86
2023/07/18 02:17:56;;;;;;;14.98;4.05;;;15.80;99.90;;;;;;5004965;28;20128;-86
2023/07/18 02:20:27;;;;;;;13.82;4.22;;;15.80;99.90;;;;;;5004931;28;20427;-87
2023/07/18 02:22:55;;;;;;;13.88;4.20;;;15.80;99.90;;;;;;5005162;28;20075;-87
2023/07/18 02:25:22;;;;;;;14.43;4.28;;;15.80;99.90;;;;;;5021321;28;20037;-87
2023/07/18 02:27:48;;;;;;;12.90;4.38;;;15.80;99.90;;;;;;5007528;28;20052;-86
2023/07/18 02:30:16;;;;;;;11.77;4.22;;;15.80;99.90;;;;;;5024912;28;20036;-87
2023/07/18 02:32:43;;;;;;;12.93;3.67;;;15.80;99.90;;;;;;5024981;28;20416;-86
2023/07/18 02:35:17;;;;;;;15.73;4.05;;;15.80;99.90;;;;;;5008606;28;20040;-88
2023/07/18 02:37:48;;;;;;;11.02;4.00;;;15.80;99.90;;;;;;5009455;28;20099;-86
2023/07/18 02:40:17;;;;;;;14.15;3.83;;;15.80;99.90;;;;;;5008666;28;20041;-87
2023/07/18 02:42:47;;;;;;;14.45;4.05;;;15.80;99.90;;;;;;5008696;28;20036;-87
2023/07/18 02:45:14;;;;;;;13.70;3.97;;;15.80;99.90;;;;;;5024270;28;20428;-88
2023/07/18 02:47:40;;;;;;;11.20;4.00;;;15.70;99.90;;;;;;5008608;28;20431;-87
2023/07/18 02:50:09;;;;;;;13.35;4.18;;;15.70;99.90;;;;;;5024596;28;20025;-87
2023/07/18 02:52:36;;;;;;;11.07;3.80;;;15.70;99.90;;;;;;5024786;28;20099;-86
2023/07/18 02:55:03;;;;;;;13.27;4.10;;;15.60;99.90;;;;;;5008428;28;20074;-86
2023/07/18 02:57:32;;;;;;;14.55;4.28;;;15.60;99.90;;;;;;5008260;28;20097;-86
2023/07/18 02:59:59;;;;;;;13.80;4.28;;;15.60;99.90;;;;;;5007990;28;20037;-86
2023/07/18 03:02:26;;;;;;;13.77;4.10;;;15.60;99.90;;;;;;5024168;28;20178;-86
2023/07/18 03:04:54;;;;;;;12.98;4.10;;;15.60;99.90;;;;;;5008113;28;20127;-86
2023/07/18 03:07:20;;;;;;;11.98;4.40;;;15.60;99.90;;;;;;5040834;28;20033;-87
2023/07/18 03:09:49;;;;;;;15.65;4.20;;;15.60;99.90;;;;;;5025117;28;20064;-87
2023/07/18 03:12:14;;;;;;;18.02;4.50;;;15.60;99.90;;;;;;5024393;28;20073;-87
2023/07/18 03:14:41;;;;;;;13.70;4.35;;;15.60;99.90;;;;;;5007634;28;20048;-86
2023/07/18 03:17:10;;;;;;;13.40;4.60;;;15.60;99.90;;;;;;5028371;28;20319;-86
2023/07/18 03:19:36;;;;;;;14.23;4.07;;;15.60;99.90;;;;;;5043819;28;20032;-86
2023/07/18 03:22:04;;;;;;;15.50;4.40;;;15.60;99.90;;;;;;5028281;28;20181;-86
2023/07/18 03:24:33;;;;;;;16.40;4.45;;;15.60;99.90;;;;;;5027394;28;20118;-86
2023/07/18 03:27:03;;;;;;;16.52;4.35;;;15.60;99.90;;;;;;5028408;28;20064;-86
2023/07/18 03:29:31;;;;;;;13.70;4.03;;;15.60;99.90;;;;;;5027696;28;20091;-86
2023/07/18 03:31:59;;;;;;;18.30;5.22;;;15.60;99.90;;;;;;5027508;28;20075;-86
2023/07/18 03:34:25;;;;;;;16.13;4.55;;;15.60;99.90;;;;;;5042891;28;20056;-86
2023/07/18 03:36:53;;;;;;;13.93;4.07;;;15.60;99.90;;;;;;5027653;28;20350;-86
2023/07/18 03:39:22;;;;;;;15.45;4.45;;;15.60;99.90;;;;;;5011400;28;20036;-86
2023/07/18 03:41:50;;;;;;;15.20;4.00;;;15.60;99.90;;;;;;5026725;28;20424;-87
2023/07/18 03:44:18;;;;;;;14.00;4.00;;;15.60;99.90;;;;;;5026992;28;20036;-87
2023/07/18 03:46:45;;;;;;;13.93;4.32;;;15.60;99.90;;;;;;5026958;28;20063;-86
2023/07/18 03:49:11;;;;;;;13.77;4.95;;;15.60;99.90;;;;;;5025263;28;20051;-87
2023/07/18 03:51:42;;;;;;;16.75;4.53;;;15.60;99.90;;;;;;5026908;28;20435;-86
2023/07/18 03:54:13;;;;;;;17.13;4.97;;;15.60;99.90;;;;;;5059988;28;20404;-86
2023/07/18 03:56:39;;;;;;;24.48;6.00;;;15.60;99.90;;;;;;5026871;28;20040;-86
2023/07/18 03:59:05;;;;;;;15.00;4.47;;;15.60;99.90;;;;;;4994284;28;20040;-86
2023/07/18 04:01:31;;;;;;;13.98;3.85;;;15.60;99.90;;;;;;5043231;28;20036;-86
2023/07/18 04:03:57;;;;;;;16.50;4.78;;;15.60;99.90;;;;;;4994241;28;20047;-86
2023/07/18 04:06:23;;;;;;;16.63;4.63;;;15.70;99.90;;;;;;5010408;28;20033;-86
2023/07/18 04:08:49;;;;;;;13.38;5.15;;;15.70;99.90;;;;;;5026837;28;20032;-86
2023/07/18 04:11:15;;;;;;;19.83;5.63;;;15.70;99.90;;;;;;5026760;28;20427;-86
2023/07/18 04:13:41;;;;;;;16.38;4.80;;;15.70;99.90;;;;;;4994002;28;20036;-86
2023/07/18 04:16:07;;;;;;;15.20;4.68;;;15.80;99.90;;;;;;5022942;28;20128;-86
2023/07/18 04:18:33;;;;;;;14.50;4.82;;;15.70;99.90;;;;;;5006874;28;20080;-86
2023/07/18 04:21:01;;;;;;;17.20;4.53;;;15.80;99.90;;;;;;5007014;28;20037;-86
2023/07/18 04:23:32;;;;;;;17.98;5.18;;;15.80;99.90;;;;;;4990339;28;20036;-86
2023/07/18 04:26:02;;;;;;;14.18;4.35;;;15.80;99.90;;;;;;5007374;28;20041;-86
2023/07/18 04:28:39;;;;;;;12.52;4.00;;;15.80;99.90;;;;;;5006880;28;20032;-87
2023/07/18 04:31:06;;;;;;;11.38;3.72;;;15.80;99.90;;;;;;5038926;28;20037;-86
2023/07/18 04:33:36;;;;;;;16.75;3.90;;;15.80;99.90;;;;;;5022911;28;20032;-86
2023/07/18 04:36:12;;;;;;;15.15;4.78;;;15.80;99.90;;;;;;5008328;28;20035;-86
2023/07/18 04:38:41;;;;;;;14.25;4.90;;;15.90;99.90;;;;;;5006550;28;20037;-87
2023/07/18 04:41:07;;;;;;;15.40;4.00;;;15.90;99.90;;;;;;5006318;28;20076;-86
2023/07/18 04:43:33;;;;;;;14.77;4.55;;;15.90;99.90;;;;;;5006386;28;20045;-86
2023/07/18 04:46:01;;;;;;;12.68;4.95;;;15.90;99.90;;;;;;5006452;28;20037;-86
2023/07/18 04:48:28;;;;;;;14.23;4.78;;;15.90;99.90;;;;;;5006167;28;20381;-87
2023/07/18 04:50:59;;;;;;;17.08;4.25;;;15.90;99.90;;;;;;5005394;28;20044;-86
2023/07/18 04:53:27;;;;;;;12.35;4.00;;;16.00;99.90;;;;;;5005544;28;20085;-86
2023/07/18 04:55:57;;;;;;;14.90;4.35;;;16.00;99.90;;;;;;5006205;28;20025;-86
2023/07/18 04:58:27;;;;;;;14.35;3.90;;;16.00;99.90;;;;;;5039069;28;20029;-86
2023/07/18 05:00:56;;;;;;;14.82;4.20;;;16.00;99.90;;;;;;5006014;28;20107;-86
2023/07/18 05:03:23;;;;;;;11.05;3.72;;;16.00;99.90;;;;;;5006276;28;20061;-85
2023/07/18 05:05:49;;;;;;;16.95;4.95;;;16.00;99.90;;;;;;5005582;28;20033;-86
2023/07/18 05:08:18;;;;;;;13.52;4.30;;;16.00;99.90;;;;;;4990700;28;20454;-86
2023/07/18 05:10:44;;;;;;;11.77;3.60;;;16.00;99.90;;;;;;5007700;28;20032;-87
2023/07/18 05:13:10;;;;;;;16.98;4.65;;;16.00;99.90;;;;;;5004021;28;20405;-86
2023/07/18 05:15:37;;;;;;;14.38;4.65;;;16.10;99.90;;;;;;5037184;28;20033;-86
2023/07/18 05:18:06;;;;;;;17.58;4.82;;;16.10;99.90;;;;;;5024983;28;20123;-87
2023/07/18 05:20:32;;;;;;;20.20;4.78;;;16.10;99.90;;;;;;5023697;28;20104;-86
2023/07/18 05:22:58;;;;;;;18.05;5.32;;;16.20;99.90;;;;;;5039270;28;20680;-85
2023/07/18 05:25:24;;;;;;;16.05;4.93;;;16.20;99.90;;;;;;5007845;28;20056;-86
2023/07/18 05:27:50;;;;;;;14.68;4.85;;;16.30;99.90;;;;;;5024048;28;20036;-86
2023/07/18 05:30:18;;;;;;;13.75;4.32;;;16.30;99.90;;;;;;5023604;28;20459;-87
2023/07/18 05:32:45;;;;;;;16.15;5.00;;;16.30;99.90;;;;;;5040336;28;20086;-85
2023/07/18 05:35:13;;;;;;;17.73;5.40;;;16.30;99.90;;;;;;5023653;28;20119;-86
2023/07/18 05:37:41;;;;;;;17.42;5.45;;;16.40;99.90;;;;;;5023314;28;20199;-86
2023/07/18 05:40:10;;;;;;;16.23;5.07;;;16.40;99.90;;;;;;5020660;28;20052;-86
2023/07/18 05:42:38;;;;;;;13.85;4.68;;;16.40;99.90;;;;;;5003955;28;20062;-87
2023/07/18 05:45:05;;;;;;;15.90;4.78;;;16.50;99.90;;;;;;5020208;28;20098;-86
2023/07/18 05:47:31;;;;;;;16.67;5.30;;;16.50;99.90;;;;;;5006701;28;20462;-88
2023/07/18 05:49:57;;;;;;;15.55;4.95;;;16.50;99.90;;;;;;4986856;28;20128;-85
2023/07/18 05:52:23;;;;;;;13.63;4.80;;;16.60;99.90;;;;;;5002356;28;20043;-86
2023/07/18 05:54:52;;;;;;;16.60;5.10;;;16.60;99.90;;;;;;5017581;28;20554;-86
2023/07/18 05:57:20;;;;;;;17.40;4.63;;;16.60;99.90;;;;;;4985983;28;20040;-84
2023/07/18 05:59:48;;;;;;;14.75;4.65;;;16.60;99.90;;;;;;5017874;28;20072;-85
2023/07/18 06:02:20;;;;;;;16.70;4.45;;;16.60;99.90;;;;;;4969655;28;20053;-86
2023/07/18 06:04:58;;;;;;;13.48;4.53;;;16.70;99.90;;;;;;4986344;28;20037;-86
2023/07/18 06:07:29;;;;;;;20.17;4.40;;;16.70;99.90;;;;;;5018514;28;20037;-86
2023/07/18 06:09:57;;;;;;;22.48;5.00;;;16.70;99.90;;;;;;5001259;28;20600;-86
2023/07/18 06:12:26;;;;;;;20.10;4.65;;;16.70;99.90;;;;;;5001682;28;20279;-86
2023/07/18 06:14:55;;;;;;;20.88;4.70;;;16.70;99.90;;;;;;4985591;28;20045;-86
2023/07/18 06:17:23;;;;;;;19.42;5.22;;;16.80;99.90;;;;;;5001866;28;20336;-87
2023/07/18 06:19:51;;;;;;;17.13;5.20;;;16.80;99.90;;;;;;4985924;28;20325;-86
2023/07/18 06:22:18;;;;;;;17.30;5.68;;;16.90;99.90;;;;;;4969655;28;20042;-86
2023/07/18 06:24:55;;;;;;;18.35;5.47;;;17.00;99.90;;;;;;5001740;28;20026;-86
2023/07/18 06:27:24;;;;;;;21.83;5.72;;;17.00;99.90;;;;;;5001629;28;20436;-86
2023/07/18 06:29:50;;;;;;;20.83;5.13;;;17.10;99.90;;;;;;5001349;28;20041;-86
2023/07/18 06:32:16;;;;;;;17.98;4.85;;;17.10;99.90;;;;;;5001716;28;20029;-86
2023/07/18 06:34:43;;;;;;;18.33;4.50;;;17.20;99.90;;;;;;4984459;28;20057;-86
2023/07/18 06:37:12;;;;;;;19.58;4.72;;;17.20;99.90;;;;;;5017980;28;20052;-86
2023/07/18 06:39:40;;;;;;;13.20;4.50;;;17.30;99.90;;;;;;5001427;28;20030;-87
2023/07/18 06:42:10;;;;;;;16.83;4.57;;;17.30;99.90;;;;;;5036683;28;20044;-86
2023/07/18 06:44:41;;;;;;;17.75;4.82;;;17.40;99.90;;;;;;5005530;28;20033;-86
2023/07/18 06:47:08;;;;;;;16.05;4.25;;;17.50;99.90;;;;;;5005187;28;20317;-86
2023/07/18 06:49:34;;;;;;;10.38;3.25;;;17.60;99.90;;;;;;5005113;28;20029;-86
2023/07/18 06:52:10;;;;;;;10.20;2.50;;;17.60;99.90;;;;;;5004754;28;20420;-86
2023/07/18 06:54:49;;;;;;;;;;;;;;;;;;;;;
2023/07/18 06:57:15;;;;;;;9.90;2.55;;;17.70;99.90;;;;;;5054204;28;20052;-86
2023/07/18 06:59:49;;;;;;;8.45;2.63;;;17.70;99.90;;;;;;5013756;28;20387;-86
2023/07/18 07:02:17;;;;;;;9.05;2.35;;;17.80;99.90;;;;;;5005053;28;20083;-87
2023/07/18 07:04:43;;;;;;;13.68;3.30;;;17.80;99.90;;;;;;5020638;28;20033;-87
2023/07/18 07:07:14;;;;;;;10.00;2.83;;;17.90;99.90;;;;;;5004668;28;20056;-86
2023/07/18 07:09:40;;;;;;;10.45;2.35;;;17.90;99.90;;;;;;5037166;28;20104;-87
2023/07/18 07:12:14;;;;;;;9.48;3.00;;;18.00;99.90;;;;;;5007750;28;20060;-86
2023/07/18 07:14:40;;;;;;;8.00;2.35;;;18.10;99.90;;;;;;5007671;28;20064;-87
2023/07/18 07:17:08;;;;;;;8.68;2.45;;;18.10;99.90;;;;;;5033718;28;20317;-86
2023/07/18 07:19:35;;;;;;;12.45;3.13;;;18.20;99.90;;;;;;5024209;28;20496;-86
2023/07/18 07:22:02;;;;;;;8.65;2.55;;;18.30;99.90;;;;;;5024595;28;20043;-86
2023/07/18 07:24:30;;;;;;;8.40;1.90;;;18.30;99.90;;;;;;5008127;28;20044;-86
2023/07/18 07:26:56;;;;;;;10.98;2.63;;;18.40;99.90;;;;;;5024334;28;20051;-86
2023/07/18 07:29:23;;;;;;;7.18;2.20;;;18.40;99.90;;;;;;5008102;28;20079;-86
2023/07/18 07:31:52;;;;;;;11.88;2.22;;;18.50;99.90;;;;;;5007986;28;20032;-86
2023/07/18 07:34:18;;;;;;;9.45;2.13;;;18.50;99.90;;;;;;5040344;28;20309;-86
2023/07/18 07:36:44;;;;;;;10.05;2.00;;;18.60;99.90;;;;;;5023725;28;20033;-86
2023/07/18 07:39:17;;;;;;;8.38;1.83;;;18.70;99.90;;;;;;5008351;28;20032;-86
2023/07/18 07:41:44;;;;;;;8.18;2.15;;;18.80;99.90;;;;;;5057750;28;20045;-86
2023/07/18 07:44:12;;;;;;;7.15;2.22;;;19.00;99.90;;;;;;5008294;28;20037;-86
2023/07/18 07:46:41;;;;;;;6.57;2.17;;;19.00;99.90;;;;;;5024042;28;20119;-86
2023/07/18 07:49:07;;;;;;;5.78;2.03;;;19.10;99.90;;;;;;5023795;28;20040;-86
2023/07/18 07:51:35;;;;;;;8.10;2.20;;;19.20;99.90;;;;;;5023858;28;20069;-86
2023/07/18 07:54:05;;;;;;;14.48;2.92;;;19.20;99.90;;;;;;5039899;28;20029;-86
2023/07/18 07:56:35;;;;;;;12.80;2.85;;;19.20;99.90;;;;;;5007893;28;20064;-86
2023/07/18 07:59:05;;;;;;;10.25;2.90;;;19.30;99.90;;;;;;5023421;28;20427;-86
2023/07/18 08:01:32;;;;;;;14.27;2.72;;;19.40;99.90;;;;;;5039880;28;20029;-86
2023/07/18 08:04:00;;;;;;;12.48;3.00;;;19.50;99.90;;;;;;5007327;28;20336;-86
2023/07/18 08:06:28;;;;;;;10.93;2.45;;;19.60;99.90;;;;;;5007393;28;20083;-86
2023/07/18 08:08:57;;;;;;;11.50;2.80;;;19.50;99.90;;;;;;5023285;28;20033;-86
2023/07/18 08:11:28;;;;;;;13.63;3.40;;;19.50;99.90;;;;;;5024169;28;20036;-87
2023/07/18 08:13:54;;;;;;;13.88;3.38;;;19.60;99.90;;;;;;5039712;28;20035;-86
2023/07/18 08:16:23;;;;;;;14.35;3.67;;;19.60;99.90;;;;;;5039757;28;20054;-86
2023/07/18 08:18:49;;;;;;;10.95;2.58;;;19.60;99.90;;;;;;5023294;28;20029;-87
2023/07/18 08:21:18;;;;;;;11.35;2.90;;;19.80;99.90;;;;;;5007160;28;20106;-86
2023/07/18 08:23:46;;;;;;;10.93;2.80;;;19.80;99.90;;;;;;5007050;28;20266;-86
2023/07/18 08:26:15;;;;;;;15.60;3.38;;;19.80;99.90;;;;;;5039434;28;20079;-86
2023/07/18 08:28:43;;;;;;;12.98;3.10;;;19.70;99.90;;;;;;5022617;28;20052;-87
2023/07/18 08:31:12;;;;;;;14.55;3.13;;;19.70;99.90;;;;;;5055925;28;20029;-86
2023/07/18 08:33:43;;;;;;;14.52;3.40;;;19.70;99.90;;;;;;5023221;28;20348;-86
2023/07/18 08:36:09;;;;;;;13.85;3.40;;;19.80;99.90;;;;;;5055742;28;20017;-87
2023/07/18 08:38:38;;;;;;;10.52;2.92;;;19.80;99.90;;;;;;5039842;28;20055;-86
2023/07/18 08:41:13;;;;;;;16.45;3.78;;;19.80;99.90;;;;;;5040261;28;20344;-87
2023/07/18 08:43:39;;;;;;;14.63;2.75;;;20.10;99.90;;;;;;5055912;28;20032;-86
2023/07/18 08:46:07;;;;;;;12.68;3.00;;;20.30;99.90;;;;;;5006090;28;20041;-86
2023/07/18 08:48:33;;;;;;;11.88;2.70;;;20.50;99.90;;;;;;5022622;28;20028;-86
2023/07/18 08:51:00;;;;;;;12.13;2.83;;;20.60;99.90;;;;;;5022327;28;20124;-86
2023/07/18 08:53:28;;;;;;;13.10;2.70;;;20.70;99.90;;;;;;5006276;28;20428;-86
2023/07/18 08:55:56;;;;;;;12.35;2.75;;;20.80;99.90;;;;;;5006128;28;20025;-87
2023/07/18 08:58:25;;;;;;;8.70;2.45;;;20.90;99.90;;;;;;5022763;28;20029;-86
2023/07/18 09:00:52;;;;;;;10.15;2.75;;;21.00;99.90;;;;;;5022245;28;20025;-87
2023/07/18 09:03:23;;;;;;;9.43;2.60;;;21.00;99.90;;;;;;5022640;28;20032;-86
2023/07/18 09:05:51;;;;;;;8.60;2.42;;;21.10;99.90;;;;;;5039145;28;20337;-87
2023/07/18 09:08:21;;;;;;;12.07;2.85;;;21.20;99.90;;;;;;5023339;28;20056;-86
2023/07/18 09:11:04;;;;;;;8.18;2.15;;;21.20;99.90;;;;;;5024239;28;20047;-87
2023/07/18 09:13:43;;;;;;;9.63;2.83;;;21.20;99.90;;;;;;5039260;28;20021;-87
2023/07/18 09:16:13;;;;;;;9.38;2.33;;;21.20;99.90;;;;;;5010929;28;20032;-86
2023/07/18 09:18:54;;;;;;;10.85;2.60;;;21.10;99.90;;;;;;5043506;28;20032;-86
2023/07/18 09:21:22;;;;;;;10.05;2.45;;;21.00;99.90;;;;;;5042385;28;20028;-86
2023/07/18 09:23:50;;;;;;;10.77;2.55;;;21.20;99.90;;;;;;5026249;28;20123;-87
2023/07/18 09:26:20;;;;;;;10.35;2.80;;;21.30;99.90;;;;;;5059254;28;20039;-86
2023/07/18 09:28:47;;;;;;;10.60;2.47;;;21.30;99.90;;;;;;5059651;28;20024;-87
2023/07/18 09:31:23;;;;;;;11.70;2.47;;;21.30;99.90;;;;;;5042904;28;20041;-86
2023/07/18 09:33:52;;;;;;;8.35;2.50;;;21.30;99.90;;;;;;5075715;28;20107;-89
2023/07/18 09:36:27;;;;;;;11.10;2.35;;;21.50;99.90;;;;;;5059982;28;20021;-87
2023/07/18 09:38:54;;;;;;;9.88;2.55;;;21.60;99.90;;;;;;5060769;28;20060;-87
2023/07/18 09:41:22;;;;;;;10.00;2.00;;;21.70;99.90;;;;;;5042483;28;20053;-87
2023/07/18 09:43:51;;;;;;;10.38;2.55;;;21.70;99.90;;;;;;5075046;28;20187;-87
2023/07/18 09:46:20;;;;;;;8.95;2.47;;;21.80;99.90;;;;;;5041909;28;20071;-86
2023/07/18 09:48:46;;;;;;;9.43;2.13;;;21.80;99.90;;;;;;5041554;28;20035;-88
2023/07/18 09:51:20;;;;;;;9.85;2.28;;;21.90;99.90;;;;;;5057919;28;20314;-86
2023/07/18 09:53:48;;;;;;;10.77;2.45;;;21.90;99.90;;;;;;5041519;28;20062;-87
2023/07/18 09:56:16;;;;;;;10.25;2.25;;;21.90;99.90;;;;;;5041333;28;20024;-87
2023/07/18 09:58:48;;;;;;;9.27;2.03;;;21.90;99.90;;;;;;5058080;28;20085;-86
2023/07/18 10:01:20;;;;;;;10.35;2.28;;;22.00;99.90;;;;;;5058076;28;20115;-87
2023/07/18 10:03:52;;;;;;;9.77;2.28;;;22.10;99.90;;;;;;5041332;28;20028;-87
2023/07/18 10:06:22;;;;;;;10.70;2.47;;;22.20;99.90;;;;;;5041779;28;20032;-86
2023/07/18 10:08:50;;;;;;;9.30;2.72;;;22.30;99.90;;;;;;5042129;28;20166;-87
2023/07/18 10:11:19;;;;;;;9.30;2.45;;;22.40;99.90;;;;;;5041826;28;20033;-86
2023/07/18 10:14:08;;;;;;;10.52;2.88;;;22.30;99.90;;;;;;5025950;28;20054;-86
2023/07/18 10:16:41;;;;;;;12.52;3.20;;;22.20;99.90;;;;;;5065978;28;20044;-86
2023/07/18 10:19:20;;;;;;;8.57;2.30;;;22.10;99.90;;;;;;5054129;28;20032;-86
2023/07/18 10:21:52;;;;;;;13.38;2.95;;;22.00;99.90;;;;;;5038360;28;20171;-86
2023/07/18 10:24:21;;;;;;;13.23;3.08;;;21.90;99.90;;;;;;5037845;28;20123;-86
2023/07/18 10:27:00;;;;;;;13.77;3.10;;;22.00;99.90;;;;;;5021567;28;20124;-86
2023/07/18 10:29:35;;;;;;;9.27;2.65;;;22.00;99.90;;;;;;5022254;28;20443;-86
2023/07/18 10:32:08;;;;;;;14.52;2.97;;;22.00;99.90;;;;;;5021201;28;20128;-87
2023/07/18 10:34:37;;;;;;;9.73;2.72;;;22.00;99.90;;;;;;5021126;28;20092;-86
2023/07/18 10:37:17;;;;;;;13.75;3.40;;;22.10;99.90;;;;;;5037709;28;20024;-87
2023/07/18 10:39:52;;;;;;;11.93;3.30;;;22.10;99.90;;;;;;5054468;28;20084;-87
2023/07/18 10:42:30;;;;;;;11.85;3.33;;;22.20;99.90;;;;;;5024862;28;20424;-88
2023/07/18 10:45:02;;;;;;;8.50;2.40;;;22.30;99.90;;;;;;5057616;28;20032;-87
2023/07/18 10:47:32;;;;;;;13.88;3.30;;;22.40;99.90;;;;;;5042005;28;20494;-86
2023/07/18 10:49:58;;;;;;;10.98;2.83;;;22.60;99.90;;;;;;5045098;28;20035;-87
2023/07/18 10:52:25;;;;;;;9.80;3.10;;;22.60;99.90;;;;;;5061657;28;20070;-86
2023/07/18 10:54:55;;;;;;;10.38;3.50;;;22.70;99.90;;;;;;5028519;28;20047;-87
2023/07/18 10:57:35;;;;;;;10.55;3.15;;;22.70;99.90;;;;;;5044827;28;20442;-86
2023/07/18 11:00:05;;;;;;;9.80;2.83;;;22.70;99.90;;;;;;5045117;28;20028;-87
2023/07/18 11:02:37;;;;;;;8.70;2.50;;;22.80;99.90;;;;;;5061035;28;20020;-86
2023/07/18 11:05:13;;;;;;;10.82;2.63;;;22.90;99.90;;;;;;5012194;28;20044;-86
2023/07/18 11:07:48;;;;;;;13.77;3.28;;;23.10;99.90;;;;;;5028733;28;20035;-86
2023/07/18 11:10:15;;;;;;;11.70;2.67;;;23.30;99.90;;;;;;5044342;28;20414;-87
2023/07/18 11:12:52;;;;;;;9.07;2.70;;;23.40;99.90;;;;;;5029473;28;20037;-87
2023/07/18 11:15:23;;;;;;;11.88;2.83;;;23.50;99.90;;;;;;5044535;28;20035;-87
2023/07/18 11:17:56;;;;;;;10.65;2.58;;;23.60;99.90;;;;;;5047454;28;20411;-87
2023/07/18 11:20:25;;;;;;;8.88;2.47;;;23.60;99.90;;;;;;5063544;28;20028;-87
2023/07/18 11:23:14;;;;;;;13.43;3.03;;;23.60;99.90;;;;;;5066176;28;20028;-87
2023/07/18 11:25:43;;;;;;;9.35;2.20;;;23.60;99.90;;;;;;5048359;28;20024;-87
2023/07/18 11:28:16;;;;;;;9.77;2.72;;;23.60;99.90;;;;;;5065503;28;20371;-87
2023/07/18 11:30:46;;;;;;;10.77;2.80;;;23.80;99.90;;;;;;5064081;28;20379;-87
2023/07/18 11:33:23;;;;;;;11.10;2.70;;;23.90;99.90;;;;;;5047332;28;20031;-88
2023/07/18 11:35:56;;;;;;;12.25;2.97;;;23.90;99.90;;;;;;5069819;28;20031;-87
2023/07/18 11:38:34;;;;;;;8.48;2.35;;;24.10;99.90;;;;;;5057223;28;20028;-87
2023/07/18 11:41:04;;;;;;;12.45;2.53;;;24.10;99.90;;;;;;5047620;28;20048;-86
2023/07/18 11:43:36;;;;;;;10.65;2.50;;;24.00;99.90;;;;;;5048094;28;20032;-87
2023/07/18 11:46:07;;;;;;;9.90;2.53;;;24.00;99.90;;;;;;5047853;28;20032;-87
2023/07/18 11:48:39;;;;;;;7.22;2.55;;;23.90;99.90;;;;;;5064206;28;20035;-87
2023/07/18 11:51:08;;;;;;;8.02;2.33;;;23.90;99.90;;;;;;5080583;28;20036;-87
2023/07/18 11:53:39;;;;;;;8.60;2.58;;;23.80;99.90;;;;;;5047274;28;20422;-87
2023/07/18 11:56:15;;;;;;;9.70;2.70;;;23.70;99.90;;;;;;5046845;28;20084;-88
2023/07/18 11:58:41;;;;;;;8.98;2.35;;;23.80;99.90;;;;;;5063513;28;20028;-87
2023/07/18 12:01:07;;;;;;;8.57;2.30;;;23.90;99.90;;;;;;5046797;28;20035;-87
2023/07/18 12:03:41;;;;;;;8.15;2.17;;;23.90;99.90;;;;;;5064269;28;20043;-87
2023/07/18 12:06:10;;;;;;;8.80;2.30;;;23.90;99.90;;;;;;5047524;28;20025;-87
2023/07/18 12:08:40;;;;;;;6.40;1.92;;;23.90;99.90;;;;;;5047182;28;20101;-87
2023/07/18 12:11:09;;;;;;;7.82;1.98;;;23.90;99.90;;;;;;5046498;28;20385;-87
2023/07/18 12:13:43;;;;;;;8.05;2.25;;;24.00;99.90;;;;;;5080854;28;20081;-87
2023/07/18 12:16:09;;;;;;;6.32;1.77;;;24.00;99.90;;;;;;5046276;28;20035;-87
2023/07/18 12:18:38;;;;;;;7.95;2.35;;;24.00;99.90;;;;;;5063510;28;20077;-88
2023/07/18 12:21:07;;;;;;;7.85;2.40;;;24.00;99.90;;;;;;5046950;28;20028;-87
2023/07/18 12:23:35;;;;;;;10.48;2.45;;;24.00;99.90;;;;;;5046845;28;20040;-87
2023/07/18 12:26:04;;;;;;;9.50;2.67;;;24.00;99.90;;;;;;5097486;28;20024;-87
2023/07/18 12:28:36;;;;;;;9.88;2.70;;;23.90;99.90;;;;;;5047643;28;20043;-87
2023/07/18 12:31:07;;;;;;;8.75;2.35;;;23.80;99.90;;;;;;5046216;28;20431;-87
2023/07/18 12:33:38;;;;;;;9.98;2.25;;;23.80;99.80;;;;;;5046639;28;20050;-87
2023/07/18 12:36:05;;;;;;;6.07;1.67;;;23.80;99.70;;;;;;5062758;28;20366;-87
2023/07/18 12:38:34;;;;;;;7.95;2.20;;;23.80;99.80;;;;;;5047850;28;20078;-87
2023/07/18 12:41:02;;;;;;;8.98;2.15;;;23.80;99.70;;;;;;5046191;28;20055;-87
2023/07/18 12:43:28;;;;;;;8.30;2.13;;;23.80;99.40;;;;;;5062735;28;20047;-87
2023/07/18 12:45:55;;;;;;;9.15;2.42;;;23.80;99.50;;;;;;5045801;28;20065;-87
2023/07/18 12:48:37;;;;;;;10.18;2.55;;;23.80;99.80;;;;;;5063722;28;20035;-87
2023/07/18 12:51:06;;;;;;;6.03;1.92;;;23.90;99.90;;;;;;5062520;28;20166;-87